sensor_id;sensor_type;location;lat;lon;timestamp;P1;durP1;ratioP1;P2;durP2;ratioP2
17261;SDS011;9873;52.236;21.002;2022-11-02T00:07:54;51.23;;;24.00;;
17261;SDS011;9873;52.236;21.002;2022-11-02T00:17:58;49.27;;;23.03;;
17261;SDS011;9873;52.236;21.002;2022-11-02T00:28:26;54.73;;;23.60;;
17261;SDS011;9873;52.236;21.002;2022-11-02T00:38:30;55.37;;;24.97;;
17261;SDS011;9873;52.236;21.002;2022-11-02T00:48:39;58.10;;;25.43;;
17261;SDS011;9873;52.236;21.002;2022-11-02T00:58:43;58.90;;;25.77;;
17261;SDS011;9873;52.236;21.002;2022-11-02T01:08:46;61.53;;;26.60;;
17261;SDS011;9873;52.236;21.002;2022-11-02T01:18:51;61.90;;;25.80;;
17261;SDS011;9873;52.236;21.002;2022-11-02T01:28:55;60.93;;;26.63;;
17261;SDS011;9873;52.236;21.002;2022-11-02T01:39:01;60.90;;;27.80;;
17261;SDS011;9873;52.236;21.002;2022-11-02T01:49:15;61.47;;;28.37;;
17261;SDS011;9873;52.236;21.002;2022-11-02T01:59:25;57.67;;;27.80;;
17261;SDS011;9873;52.236;21.002;2022-11-02T02:09:30;66.63;;;27.98;;
17261;SDS011;9873;52.236;21.002;2022-11-02T02:30:03;75.33;;;29.80;;
17261;SDS011;9873;52.236;21.002;2022-11-02T02:40:10;79.10;;;31.43;;
17261;SDS011;9873;52.236;21.002;2022-11-02T02:50:34;104.27;;;35.77;;
17261;SDS011;9873;52.236;21.002;2022-11-02T03:00:42;93.43;;;35.03;;
17261;SDS011;9873;52.236;21.002;2022-11-02T03:11:11;132.57;;;38.60;;
17261;SDS011;9873;52.236;21.002;2022-11-02T03:21:25;121.50;;;39.50;;
17261;SDS011;9873;52.236;21.002;2022-11-02T03:41:56;122.70;;;40.03;;
17261;SDS011;9873;52.236;21.002;2022-11-02T03:52:03;127.07;;;40.07;;
17261;SDS011;9873;52.236;21.002;2022-11-02T04:02:16;142.32;;;43.22;;
17261;SDS011;9873;52.236;21.002;2022-11-02T04:12:24;277.50;;;49.87;;
17261;SDS011;9873;52.236;21.002;2022-11-02T04:22:34;616.10;;;67.03;;
17261;SDS011;9873;52.236;21.002;2022-11-02T04:32:55;820.50;;;76.30;;
17261;SDS011;9873;52.236;21.002;2022-11-02T04:43:23;268.87;;;51.70;;
17261;SDS011;9873;52.236;21.002;2022-11-02T04:53:27;232.07;;;52.00;;
17261;SDS011;9873;52.236;21.002;2022-11-02T05:03:30;219.50;;;51.87;;
17261;SDS011;9873;52.236;21.002;2022-11-02T05:13:34;619.57;;;73.40;;
17261;SDS011;9873;52.236;21.002;2022-11-02T05:23:38;411.15;;;61.88;;
17261;SDS011;9873;52.236;21.002;2022-11-02T05:33:43;613.78;;;74.40;;
17261;SDS011;9873;52.236;21.002;2022-11-02T05:43:50;305.27;;;59.70;;
17261;SDS011;9873;52.236;21.002;2022-11-02T05:53:57;257.03;;;54.47;;
17261;SDS011;9873;52.236;21.002;2022-11-02T06:04:00;384.53;;;60.77;;
17261;SDS011;9873;52.236;21.002;2022-11-02T06:14:08;209.75;;;53.22;;
17261;SDS011;9873;52.236;21.002;2022-11-02T06:24:11;178.20;;;48.50;;
17261;SDS011;9873;52.236;21.002;2022-11-02T06:34:19;136.60;;;43.90;;
17261;SDS011;9873;52.236;21.002;2022-11-02T06:44:21;125.32;;;40.20;;
17261;SDS011;9873;52.236;21.002;2022-11-02T06:54:24;95.68;;;35.63;;
17261;SDS011;9873;52.236;21.002;2022-11-02T07:04:27;80.35;;;32.28;;
17261;SDS011;9873;52.236;21.002;2022-11-02T07:14:31;76.55;;;33.05;;
17261;SDS011;9873;52.236;21.002;2022-11-02T07:24:38;62.90;;;28.20;;
17261;SDS011;9873;52.236;21.002;2022-11-02T07:34:46;50.17;;;24.05;;
17261;SDS011;9873;52.236;21.002;2022-11-02T07:44:57;42.28;;;25.25;;
17261;SDS011;9873;52.236;21.002;2022-11-02T07:55:06;38.97;;;19.73;;
17261;SDS011;9873;52.236;21.002;2022-11-02T08:05:08;34.55;;;18.65;;
17261;SDS011;9873;52.236;21.002;2022-11-02T08:15:11;34.78;;;18.85;;
17261;SDS011;9873;52.236;21.002;2022-11-02T08:25:13;35.13;;;19.48;;
17261;SDS011;9873;52.236;21.002;2022-11-02T08:35:21;37.33;;;20.48;;
17261;SDS011;9873;52.236;21.002;2022-11-02T08:45:32;32.80;;;19.98;;
17261;SDS011;9873;52.236;21.002;2022-11-02T08:55:58;32.65;;;18.50;;
17261;SDS011;9873;52.236;21.002;2022-11-02T09:06:07;35.25;;;21.92;;
17261;SDS011;9873;52.236;21.002;2022-11-02T09:16:13;32.67;;;20.02;;
17261;SDS011;9873;52.236;21.002;2022-11-02T09:26:24;35.75;;;21.77;;
17261;SDS011;9873;52.236;21.002;2022-11-02T09:36:26;35.55;;;22.15;;
17261;SDS011;9873;52.236;21.002;2022-11-02T09:46:37;39.70;;;23.15;;
17261;SDS011;9873;52.236;21.002;2022-11-02T09:56:46;34.22;;;20.13;;
17261;SDS011;9873;52.236;21.002;2022-11-02T10:07:17;31.70;;;18.83;;
17261;SDS011;9873;52.236;21.002;2022-11-02T10:17:33;30.17;;;18.27;;
17261;SDS011;9873;52.236;21.002;2022-11-02T10:27:41;31.83;;;17.85;;
17261;SDS011;9873;52.236;21.002;2022-11-02T10:59:19;32.58;;;18.77;;
17261;SDS011;9873;52.236;21.002;2022-11-02T11:09:49;31.38;;;18.20;;
17261;SDS011;9873;52.236;21.002;2022-11-02T11:19:55;24.98;;;16.38;;
17261;SDS011;9873;52.236;21.002;2022-11-02T11:30:01;28.52;;;15.70;;
17261;SDS011;9873;52.236;21.002;2022-11-02T11:40:15;21.00;;;13.13;;
17261;SDS011;9873;52.236;21.002;2022-11-02T11:50:24;19.85;;;12.93;;
17261;SDS011;9873;52.236;21.002;2022-11-02T12:00:31;18.40;;;12.05;;
17261;SDS011;9873;52.236;21.002;2022-11-02T12:21:00;21.25;;;14.85;;
17261;SDS011;9873;52.236;21.002;2022-11-02T12:31:44;24.08;;;13.95;;
17261;SDS011;9873;52.236;21.002;2022-11-02T12:41:54;21.20;;;14.20;;
17261;SDS011;9873;52.236;21.002;2022-11-02T13:02:35;19.23;;;13.00;;
17261;SDS011;9873;52.236;21.002;2022-11-02T13:12:50;20.70;;;12.85;;
17261;SDS011;9873;52.236;21.002;2022-11-02T13:23:11;23.23;;;14.27;;
17261;SDS011;9873;52.236;21.002;2022-11-02T13:33:37;21.10;;;14.35;;
17261;SDS011;9873;52.236;21.002;2022-11-02T13:54:02;23.70;;;14.88;;
17261;SDS011;9873;52.236;21.002;2022-11-02T14:04:07;27.50;;;14.98;;
17261;SDS011;9873;52.236;21.002;2022-11-02T14:55:08;28.33;;;17.88;;
17261;SDS011;9873;52.236;21.002;2022-11-02T15:05:35;27.30;;;17.55;;
17261;SDS011;9873;52.236;21.002;2022-11-02T15:15:41;26.35;;;17.15;;
17261;SDS011;9873;52.236;21.002;2022-11-02T15:25:52;41.40;;;22.70;;
17261;SDS011;9873;52.236;21.002;2022-11-02T15:35:56;37.03;;;19.52;;
17261;SDS011;9873;52.236;21.002;2022-11-02T15:56:19;34.80;;;21.15;;
17261;SDS011;9873;52.236;21.002;2022-11-02T16:16:51;39.07;;;22.37;;
17261;SDS011;9873;52.236;21.002;2022-11-02T16:26:55;31.23;;;19.47;;
17261;SDS011;9873;52.236;21.002;2022-11-02T16:37:01;27.35;;;17.60;;
17261;SDS011;9873;52.236;21.002;2022-11-02T16:57:26;24.83;;;11.38;;
17261;SDS011;9873;52.236;21.002;2022-11-02T17:07:40;17.57;;;9.23;;
17261;SDS011;9873;52.236;21.002;2022-11-02T17:17:44;16.47;;;8.60;;
17261;SDS011;9873;52.236;21.002;2022-11-02T17:27:50;19.60;;;8.83;;
17261;SDS011;9873;52.236;21.002;2022-11-02T17:37:55;13.90;;;7.95;;
17261;SDS011;9873;52.236;21.002;2022-11-02T17:47:59;17.02;;;9.30;;
17261;SDS011;9873;52.236;21.002;2022-11-02T17:58:05;14.70;;;6.70;;
17261;SDS011;9873;52.236;21.002;2022-11-02T18:08:14;14.55;;;6.45;;
17261;SDS011;9873;52.236;21.002;2022-11-02T18:18:19;13.20;;;5.90;;
17261;SDS011;9873;52.236;21.002;2022-11-02T18:28:21;9.35;;;5.68;;
17261;SDS011;9873;52.236;21.002;2022-11-02T18:38:23;8.38;;;5.18;;
17261;SDS011;9873;52.236;21.002;2022-11-02T18:48:28;13.38;;;5.82;;
17261;SDS011;9873;52.236;21.002;2022-11-02T18:58:31;12.48;;;6.13;;
17261;SDS011;9873;52.236;21.002;2022-11-02T19:08:36;14.23;;;6.47;;
17261;SDS011;9873;52.236;21.002;2022-11-02T19:19:00;15.20;;;7.22;;
17261;SDS011;9873;52.236;21.002;2022-11-02T19:29:09;11.63;;;6.20;;
17261;SDS011;9873;52.236;21.002;2022-11-02T19:39:11;15.95;;;7.82;;
17261;SDS011;9873;52.236;21.002;2022-11-02T19:49:19;13.60;;;7.45;;
17261;SDS011;9873;52.236;21.002;2022-11-02T19:59:27;15.57;;;7.70;;
17261;SDS011;9873;52.236;21.002;2022-11-02T20:09:34;19.17;;;8.77;;
17261;SDS011;9873;52.236;21.002;2022-11-02T20:19:44;16.42;;;7.47;;
17261;SDS011;9873;52.236;21.002;2022-11-02T20:29:50;17.20;;;8.88;;
17261;SDS011;9873;52.236;21.002;2022-11-02T20:39:56;18.58;;;7.93;;
17261;SDS011;9873;52.236;21.002;2022-11-02T20:49:58;19.23;;;8.30;;
17261;SDS011;9873;52.236;21.002;2022-11-02T21:00:03;16.57;;;7.70;;
17261;SDS011;9873;52.236;21.002;2022-11-02T21:10:06;15.93;;;7.40;;
17261;SDS011;9873;52.236;21.002;2022-11-02T21:20:15;15.50;;;7.90;;
17261;SDS011;9873;52.236;21.002;2022-11-02T21:30:37;16.90;;;7.27;;
17261;SDS011;9873;52.236;21.002;2022-11-02T21:40:52;21.02;;;8.38;;
17261;SDS011;9873;52.236;21.002;2022-11-02T21:51:01;17.63;;;8.43;;
17261;SDS011;9873;52.236;21.002;2022-11-02T22:01:18;15.70;;;8.93;;
17261;SDS011;9873;52.236;21.002;2022-11-02T22:11:41;17.63;;;8.53;;
17261;SDS011;9873;52.236;21.002;2022-11-02T22:21:47;16.80;;;8.10;;
17261;SDS011;9873;52.236;21.002;2022-11-02T22:31:51;21.20;;;9.47;;
17261;SDS011;9873;52.236;21.002;2022-11-02T22:41:56;19.17;;;8.40;;
17261;SDS011;9873;52.236;21.002;2022-11-02T22:52:01;17.10;;;10.20;;
17261;SDS011;9873;52.236;21.002;2022-11-02T23:02:07;18.97;;;8.00;;
17261;SDS011;9873;52.236;21.002;2022-11-02T23:12:12;14.47;;;7.23;;
17261;SDS011;9873;52.236;21.002;2022-11-02T23:22:15;14.47;;;7.00;;
17261;SDS011;9873;52.236;21.002;2022-11-02T23:32:34;13.93;;;6.27;;
17261;SDS011;9873;52.236;21.002;2022-11-02T23:42:36;12.87;;;7.17;;
17261;SDS011;9873;52.236;21.002;2022-11-02T23:52:40;14.13;;;6.73;;
